createdAt,value
2023-02-09T00:04:12.769Z,17.98
2023-02-09T00:09:14.368Z,17.92
2023-02-09T00:14:19.618Z,17.48
2023-02-09T00:19:22.640Z,15.75
2023-02-09T00:24:24.536Z,15.13
2023-02-09T00:29:26.005Z,16.73
2023-02-09T00:34:27.527Z,18.63
2023-02-09T00:39:29.500Z,18.63
2023-02-09T00:44:30.868Z,19.17
2023-02-09T00:49:32.658Z,17.05
2023-02-09T00:54:34.073Z,20.45
2023-02-09T00:59:35.767Z,17.20
2023-02-09T01:04:37.897Z,20.80
2023-02-09T01:09:39.324Z,19.98
2023-02-09T01:14:40.761Z,21.20
2023-02-09T01:19:42.243Z,16.88
2023-02-09T01:24:43.648Z,18.27
2023-02-09T01:29:45.282Z,21.60
2023-02-09T01:34:50.156Z,18.17
2023-02-09T01:39:51.574Z,19.08
2023-02-09T01:44:58.994Z,18.08
2023-02-09T01:50:00.659Z,19.23
2023-02-09T01:55:03.132Z,20.05
2023-02-09T02:00:14.968Z,18.63
2023-02-09T02:05:16.908Z,19.65
2023-02-09T02:10:18.600Z,21.45
2023-02-09T02:15:22.023Z,20.02
2023-02-09T02:20:35.313Z,22.40
2023-02-09T02:25:39.751Z,22.27
2023-02-09T02:30:41.233Z,19.70
2023-02-09T02:35:45.514Z,20.05
2023-02-09T02:40:47.181Z,19.92
2023-02-09T02:45:57.983Z,21.77
2023-02-09T02:51:02.283Z,19.60
2023-02-09T02:56:14.273Z,19.83
2023-02-09T03:11:51.684Z,22.75
2023-02-09T03:17:06.621Z,21.23
2023-02-09T03:22:13.608Z,19.70
2023-02-09T03:27:15.006Z,18.27
2023-02-09T03:32:16.571Z,22.25
2023-02-09T03:37:18.098Z,18.60
2023-02-09T03:42:19.628Z,20.17
2023-02-09T03:47:21.062Z,20.75
2023-02-09T03:52:22.438Z,20.25
2023-02-09T03:57:23.874Z,20.15
2023-02-09T04:02:25.454Z,22.02
2023-02-09T04:07:27.769Z,22.85
2023-02-09T04:12:29.286Z,22.25
2023-02-09T04:17:30.775Z,22.75
2023-02-09T04:22:32.229Z,20.17
2023-02-09T04:27:33.716Z,19.92
2023-02-09T04:32:35.093Z,21.27
2023-02-09T04:37:36.472Z,19.98
2023-02-09T04:42:37.975Z,24.75
2023-02-09T04:47:39.443Z,21.73
2023-02-09T04:52:40.930Z,22.52
2023-02-09T04:58:01.135Z,21.58
2023-02-09T05:08:03.922Z,20.75
2023-02-09T05:13:05.310Z,22.10
2023-02-09T05:18:06.685Z,20.10
2023-02-09T05:23:08.155Z,22.15
2023-02-09T05:28:09.631Z,19.20
2023-02-09T05:33:11.060Z,21.75
2023-02-09T05:38:12.446Z,23.15
2023-02-09T05:43:14.804Z,22.70
2023-02-09T05:48:16.940Z,22.85
2023-02-09T05:53:18.325Z,25.05
2023-02-09T05:58:19.674Z,24.35
2023-02-09T06:03:21.115Z,24.63
2023-02-09T06:08:22.536Z,21.75
2023-02-09T06:13:23.949Z,22.27
2023-02-09T06:23:40.675Z,19.55
2023-02-09T06:28:42.545Z,21.60
2023-02-09T06:33:43.936Z,20.92
2023-02-09T06:38:45.326Z,21.83
2023-02-09T06:43:46.747Z,20.27
2023-02-09T06:48:48.404Z,19.77
2023-02-09T06:53:50.085Z,20.67
2023-02-09T06:58:51.674Z,19.60
2023-02-09T07:03:53.102Z,24.08
2023-02-09T07:08:54.567Z,21.73
2023-02-09T07:13:55.948Z,20.85
2023-02-09T07:19:00.308Z,21.05
2023-02-09T07:24:01.896Z,25.50
2023-02-09T07:29:03.314Z,22.02
2023-02-09T07:34:04.744Z,19.63
2023-02-09T07:39:06.126Z,23.88
2023-02-09T07:44:09.304Z,19.80
2023-02-09T07:49:11.084Z,20.02
2023-02-09T07:54:16.108Z,20.67
2023-02-09T07:59:17.540Z,19.15
2023-02-09T08:04:19.012Z,20.15
2023-02-09T08:09:20.493Z,21.63
2023-02-09T08:14:29.240Z,19.85
2023-02-09T08:19:30.655Z,19.88
2023-02-09T08:24:32.109Z,21.75
2023-02-09T08:29:36.709Z,22.40
2023-02-09T08:34:38.145Z,20.05
2023-02-09T08:39:39.628Z,21.70
2023-02-09T08:44:40.995Z,19.95
2023-02-09T08:49:42.453Z,22.88
2023-02-09T08:54:44.135Z,21.58
2023-02-09T08:59:45.571Z,20.40
2023-02-09T09:04:47.258Z,18.20
2023-02-09T09:09:48.794Z,22.48
2023-02-09T09:14:50.234Z,21.90
2023-02-09T09:19:56.322Z,19.17
2023-02-09T09:24:57.743Z,20.77
2023-02-09T09:29:59.321Z,21.25
2023-02-09T09:35:00.889Z,22.92
2023-02-09T09:40:02.367Z,23.27
2023-02-09T09:45:05.108Z,22.65
2023-02-09T09:50:08.400Z,23.67
2023-02-09T09:55:13.629Z,25.90
2023-02-09T10:00:20.047Z,25.55
2023-02-09T10:05:23.176Z,23.17
2023-02-09T10:10:33.449Z,24.33
2023-02-09T10:15:37.722Z,25.17
2023-02-09T10:20:50.129Z,23.27
2023-02-09T10:25:51.633Z,25.02
2023-02-09T10:30:54.151Z,28.55
2023-02-09T10:36:01.008Z,24.65
2023-02-09T10:41:08.500Z,26.58
2023-02-09T10:46:16.137Z,21.20
2023-02-09T10:51:29.353Z,22.85
2023-02-09T10:56:35.465Z,23.58
2023-02-09T11:01:42.025Z,24.73
2023-02-09T11:06:48.296Z,29.10
2023-02-09T11:11:49.827Z,21.35
2023-02-09T11:17:14.539Z,26.92
2023-02-09T11:22:15.930Z,26.52
2023-02-09T11:27:36.169Z,25.92
2023-02-09T11:37:53.675Z,25.63
2023-02-09T11:43:04.392Z,26.60
2023-02-09T11:48:05.807Z,26.08
2023-02-09T11:53:17.346Z,26.45
2023-02-09T11:58:30.934Z,25.27
2023-02-09T12:03:32.362Z,27.95
2023-02-09T12:08:38.037Z,27.23
2023-02-09T12:13:57.946Z,28.25
2023-02-09T12:18:59.360Z,26.17
2023-02-09T12:24:01.480Z,28.63
2023-02-09T12:29:20.987Z,28.48
2023-02-09T12:34:24.054Z,25.73
2023-02-09T12:39:26.715Z,26.90
2023-02-09T12:44:28.060Z,27.38
2023-02-09T12:49:29.496Z,31.52
2023-02-09T12:54:43.015Z,28.45
2023-02-09T12:59:50.559Z,26.08
2023-02-09T13:04:52.268Z,30.85
2023-02-09T13:09:54.373Z,26.85
2023-02-09T13:14:55.760Z,32.80
2023-02-09T13:20:02.504Z,31.10
2023-02-09T13:25:18.970Z,31.05
2023-02-09T13:30:26.533Z,28.60
2023-02-09T13:35:30.972Z,31.25
2023-02-09T13:40:33.926Z,29.75
2023-02-09T13:45:35.570Z,30.98
2023-02-09T13:50:36.979Z,35.75
2023-02-09T13:55:40.044Z,31.30
2023-02-09T14:00:43.715Z,30.75
2023-02-09T14:05:51.286Z,32.95
2023-02-09T14:10:54.984Z,34.10
2023-02-09T14:16:09.857Z,29.55
2023-02-09T14:21:11.322Z,32.30
2023-02-09T14:26:15.473Z,29.75
2023-02-09T14:31:22.207Z,26.83
2023-02-09T14:36:32.441Z,33.80
2023-02-09T14:41:35.574Z,30.13
2023-02-09T14:46:50.586Z,31.80
2023-02-09T14:52:03.058Z,30.38
2023-02-09T14:57:04.750Z,35.45
2023-02-09T15:02:16.631Z,32.25
2023-02-09T15:07:20.165Z,38.95
2023-02-09T15:12:23.953Z,35.00
2023-02-09T15:17:28.035Z,35.03
2023-02-09T15:22:29.475Z,31.38
2023-02-09T15:27:42.178Z,35.75
2023-02-09T15:32:44.044Z,33.22
2023-02-09T15:37:46.303Z,32.10
2023-02-09T15:43:06.410Z,35.60
2023-02-09T15:48:09.501Z,36.42
2023-02-09T15:53:12.625Z,37.05
2023-02-09T15:58:15.289Z,32.58
2023-02-09T16:03:18.082Z,33.53
2023-02-09T16:08:21.597Z,34.58
2023-02-09T16:13:23.450Z,36.42
2023-02-09T16:18:25.271Z,34.42
2023-02-09T16:23:26.942Z,33.20
2023-02-09T16:28:28.468Z,35.25
2023-02-09T16:33:29.899Z,36.58
2023-02-09T16:38:31.285Z,40.15
2023-02-09T16:43:32.711Z,39.10
2023-02-09T16:48:35.002Z,35.70
2023-02-09T16:53:37.308Z,39.13
2023-02-09T16:58:39.610Z,36.05
2023-02-09T17:03:41.837Z,30.60
2023-02-09T17:08:43.392Z,35.25
2023-02-09T17:13:44.963Z,37.72
2023-02-09T17:18:47.374Z,39.47
2023-02-09T17:23:49.124Z,56.63
2023-02-09T17:28:51.000Z,48.17
2023-02-09T17:33:55.828Z,40.83
2023-02-09T17:38:58.212Z,38.90
2023-02-09T17:44:28.657Z,33.95
2023-02-09T17:49:36.597Z,35.03
2023-02-09T17:54:38.008Z,31.40
2023-02-09T17:59:39.445Z,35.03
2023-02-09T18:04:41.035Z,32.20
2023-02-09T18:09:42.434Z,30.75
2023-02-09T18:14:43.844Z,27.98
2023-02-09T18:19:45.448Z,27.40
2023-02-09T18:24:46.939Z,25.67
2023-02-09T18:29:48.378Z,22.35
2023-02-09T18:34:49.779Z,20.38
2023-02-09T18:39:51.168Z,20.38
2023-02-09T18:44:52.714Z,20.48
2023-02-09T18:49:57.106Z,20.55
2023-02-09T18:54:58.500Z,19.35
2023-02-09T19:00:01.825Z,21.83
2023-02-09T19:05:04.425Z,21.73
2023-02-09T19:10:07.203Z,18.05
2023-02-09T19:15:09.162Z,18.77
2023-02-09T19:20:17.961Z,20.95
2023-02-09T19:25:20.239Z,23.23
2023-02-09T19:30:25.052Z,16.52
2023-02-09T19:35:26.575Z,21.88
2023-02-09T19:40:33.727Z,20.05
2023-02-09T19:45:37.925Z,22.15
2023-02-09T19:50:39.416Z,22.95
2023-02-09T19:55:41.122Z,15.43
2023-02-09T20:05:43.199Z,17.27
2023-02-09T20:10:45.294Z,14.63
2023-02-09T20:15:47.277Z,15.18
2023-02-09T20:20:49.139Z,17.73
2023-02-09T20:25:51.005Z,18.10
2023-02-09T20:30:52.485Z,18.15
2023-02-09T20:35:55.694Z,16.90
2023-02-09T20:40:57.165Z,21.88
2023-02-09T20:46:22.844Z,17.63
2023-02-09T20:51:25.563Z,15.77
2023-02-09T20:56:28.412Z,16.65
2023-02-09T21:01:29.865Z,15.57
2023-02-09T21:06:31.378Z,12.10
2023-02-09T21:11:33.073Z,16.83
2023-02-09T21:16:34.843Z,16.23
2023-02-09T21:21:36.323Z,12.80
2023-02-09T21:26:41.295Z,15.80
2023-02-09T21:31:43.061Z,16.08
2023-02-09T21:36:44.675Z,17.92
2023-02-09T21:42:04.824Z,15.75
2023-02-09T21:52:07.641Z,17.35
2023-02-09T21:57:09.092Z,16.60
2023-02-09T22:02:14.844Z,17.30
2023-02-09T22:07:16.350Z,16.63
2023-02-09T22:12:17.791Z,18.40
2023-02-09T22:17:19.304Z,14.27
2023-02-09T22:22:20.757Z,14.52
2023-02-09T22:27:22.495Z,14.07
2023-02-09T22:32:24.475Z,17.10
2023-02-09T22:37:26.041Z,16.83
2023-02-09T22:42:27.504Z,17.75
2023-02-09T22:47:28.963Z,15.98
2023-02-09T22:52:30.376Z,13.75
2023-02-09T22:57:31.979Z,17.52
2023-02-09T23:02:33.550Z,15.48
2023-02-09T23:07:35.034Z,13.93
2023-02-09T23:12:36.502Z,15.68
2023-02-09T23:17:37.988Z,17.48
2023-02-09T23:22:39.532Z,15.00
2023-02-09T23:27:41.067Z,17.17
2023-02-09T23:32:42.502Z,17.05
2023-02-09T23:37:43.952Z,16.23
2023-02-09T23:42:45.389Z,15.50
2023-02-09T23:47:46.920Z,15.52
2023-02-09T23:52:48.361Z,17.70
2023-02-09T23:57:50.047Z,19.23
